sensor_id;sensor_type;location;lat;lon;timestamp;temperature;humidity
5492;DHT22;2768;53.540;10.224;2022-07-30T00:02:51;20.80;68.40
5492;DHT22;2768;53.540;10.224;2022-07-30T00:08:44;20.80;68.50
5492;DHT22;2768;53.540;10.224;2022-07-30T00:14:41;20.70;70.50
5492;DHT22;2768;53.540;10.224;2022-07-30T00:20:34;20.60;68.30
5492;DHT22;2768;53.540;10.224;2022-07-30T00:26:31;20.50;71.50
5492;DHT22;2768;53.540;10.224;2022-07-30T00:32:28;20.30;69.50
5492;DHT22;2768;53.540;10.224;2022-07-30T00:38:21;20.40;68.20
5492;DHT22;2768;53.540;10.224;2022-07-30T00:44:17;20.40;76.00
5492;DHT22;2768;53.540;10.224;2022-07-30T00:50:13;20.60;63.50
5492;DHT22;2768;53.540;10.224;2022-07-30T00:56:06;20.40;68.20
5492;DHT22;2768;53.540;10.224;2022-07-30T01:01:59;20.20;79.30
5492;DHT22;2768;53.540;10.224;2022-07-30T01:07:58;20.10;88.50
5492;DHT22;2768;53.540;10.224;2022-07-30T01:13:51;20.20;90.30
5492;DHT22;2768;53.540;10.224;2022-07-30T01:19:49;20.20;92.60
5492;DHT22;2768;53.540;10.224;2022-07-30T01:25:57;19.90;96.80
5492;DHT22;2768;53.540;10.224;2022-07-30T01:31:55;20.00;99.90
5492;DHT22;2768;53.540;10.224;2022-07-30T01:37:54;20.00;99.90
5492;DHT22;2768;53.540;10.224;2022-07-30T01:43:49;19.80;99.90
5492;DHT22;2768;53.540;10.224;2022-07-30T01:49:44;19.80;99.90
5492;DHT22;2768;53.540;10.224;2022-07-30T01:55:41;19.60;99.90
5492;DHT22;2768;53.540;10.224;2022-07-30T02:01:35;19.80;99.90
5492;DHT22;2768;53.540;10.224;2022-07-30T02:07:35;19.80;99.90
5492;DHT22;2768;53.540;10.224;2022-07-30T02:13:31;19.60;99.90
5492;DHT22;2768;53.540;10.224;2022-07-30T02:19:33;19.70;99.90
5492;DHT22;2768;53.540;10.224;2022-07-30T02:25:34;19.50;99.90
5492;DHT22;2768;53.540;10.224;2022-07-30T02:31:30;19.60;99.90
5492;DHT22;2768;53.540;10.224;2022-07-30T02:37:29;19.60;99.90
5492;DHT22;2768;53.540;10.224;2022-07-30T02:43:37;19.50;99.90
5492;DHT22;2768;53.540;10.224;2022-07-30T02:49:33;19.50;99.90
5492;DHT22;2768;53.540;10.224;2022-07-30T02:55:37;19.40;99.90
5492;DHT22;2768;53.540;10.224;2022-07-30T03:01:34;19.40;99.90
5492;DHT22;2768;53.540;10.224;2022-07-30T03:07:27;19.40;99.90
5492;DHT22;2768;53.540;10.224;2022-07-30T03:13:26;19.30;99.90
5492;DHT22;2768;53.540;10.224;2022-07-30T03:19:21;19.20;99.90
5492;DHT22;2768;53.540;10.224;2022-07-30T03:25:22;19.20;99.90
5492;DHT22;2768;53.540;10.224;2022-07-30T03:31:20;19.20;99.90
5492;DHT22;2768;53.540;10.224;2022-07-30T03:37:16;19.20;99.90
5492;DHT22;2768;53.540;10.224;2022-07-30T03:43:10;19.10;99.90
5492;DHT22;2768;53.540;10.224;2022-07-30T03:49:27;19.20;99.90
5492;DHT22;2768;53.540;10.224;2022-07-30T03:55:21;19.20;99.90
5492;DHT22;2768;53.540;10.224;2022-07-30T04:01:14;18.90;99.90
5492;DHT22;2768;53.540;10.224;2022-07-30T04:07:35;18.90;99.90
5492;DHT22;2768;53.540;10.224;2022-07-30T04:13:36;19.00;99.90
5492;DHT22;2768;53.540;10.224;2022-07-30T04:19:38;18.90;99.90
5492;DHT22;2768;53.540;10.224;2022-07-30T04:25:39;18.90;99.90
5492;DHT22;2768;53.540;10.224;2022-07-30T04:31:35;18.90;99.90
5492;DHT22;2768;53.540;10.224;2022-07-30T04:37:50;18.90;99.90
5492;DHT22;2768;53.540;10.224;2022-07-30T04:43:53;18.80;99.90
5492;DHT22;2768;53.540;10.224;2022-07-30T04:49:49;18.90;99.90
5492;DHT22;2768;53.540;10.224;2022-07-30T04:55:58;19.00;99.90
5492;DHT22;2768;53.540;10.224;2022-07-30T05:01:56;18.90;99.90
5492;DHT22;2768;53.540;10.224;2022-07-30T05:07:51;19.00;99.90
5492;DHT22;2768;53.540;10.224;2022-07-30T05:13:48;19.10;99.90
5492;DHT22;2768;53.540;10.224;2022-07-30T05:19:46;19.10;99.90
5492;DHT22;2768;53.540;10.224;2022-07-30T05:25:40;19.20;99.90
5492;DHT22;2768;53.540;10.224;2022-07-30T05:31:57;19.20;99.90
5492;DHT22;2768;53.540;10.224;2022-07-30T05:37:59;19.30;99.90
5492;DHT22;2768;53.540;10.224;2022-07-30T05:44:05;19.40;99.90
5492;DHT22;2768;53.540;10.224;2022-07-30T05:49:58;19.60;99.90
5492;DHT22;2768;53.540;10.224;2022-07-30T05:55:58;19.60;99.90
5492;DHT22;2768;53.540;10.224;2022-07-30T06:02:09;19.80;99.90
5492;DHT22;2768;53.540;10.224;2022-07-30T06:08:32;19.90;99.90
5492;DHT22;2768;53.540;10.224;2022-07-30T06:14:27;19.90;99.90
5492;DHT22;2768;53.540;10.224;2022-07-30T06:20:25;20.10;99.90
5492;DHT22;2768;53.540;10.224;2022-07-30T06:26:36;20.20;99.90
5492;DHT22;2768;53.540;10.224;2022-07-30T06:32:32;20.30;99.90
5492;DHT22;2768;53.540;10.224;2022-07-30T06:38:26;20.30;99.90
5492;DHT22;2768;53.540;10.224;2022-07-30T06:44:27;20.30;99.90
5492;DHT22;2768;53.540;10.224;2022-07-30T06:50:40;20.40;99.90
5492;DHT22;2768;53.540;10.224;2022-07-30T06:56:35;20.40;99.90
5492;DHT22;2768;53.540;10.224;2022-07-30T07:02:31;20.40;99.90
5492;DHT22;2768;53.540;10.224;2022-07-30T07:08:36;20.40;99.90
5492;DHT22;2768;53.540;10.224;2022-07-30T07:14:35;20.50;99.90
5492;DHT22;2768;53.540;10.224;2022-07-30T07:20:29;20.60;99.90
5492;DHT22;2768;53.540;10.224;2022-07-30T07:26:40;20.60;95.80
5492;DHT22;2768;53.540;10.224;2022-07-30T07:32:34;20.60;94.90
5492;DHT22;2768;53.540;10.224;2022-07-30T07:38:32;20.40;95.20
5492;DHT22;2768;53.540;10.224;2022-07-30T07:44:27;20.60;93.80
5492;DHT22;2768;53.540;10.224;2022-07-30T07:50:20;20.30;83.40
5492;DHT22;2768;53.540;10.224;2022-07-30T07:56:16;20.40;90.10
5492;DHT22;2768;53.540;10.224;2022-07-30T08:02:16;20.60;93.70
5492;DHT22;2768;53.540;10.224;2022-07-30T08:08:20;20.70;93.30
5492;DHT22;2768;53.540;10.224;2022-07-30T08:14:32;20.80;93.70
5492;DHT22;2768;53.540;10.224;2022-07-30T08:20:49;20.90;94.60
5492;DHT22;2768;53.540;10.224;2022-07-30T08:26:53;20.90;90.60
5492;DHT22;2768;53.540;10.224;2022-07-30T08:32:49;21.10;94.60
5492;DHT22;2768;53.540;10.224;2022-07-30T08:38:46;21.20;92.40
5492;DHT22;2768;53.540;10.224;2022-07-30T08:44:43;21.20;82.70
5492;DHT22;2768;53.540;10.224;2022-07-30T08:50:43;21.30;85.40
5492;DHT22;2768;53.540;10.224;2022-07-30T08:57:01;21.50;66.60
5492;DHT22;2768;53.540;10.224;2022-07-30T09:02:56;21.70;41.00
5492;DHT22;2768;53.540;10.224;2022-07-30T09:08:49;21.90;33.10
5492;DHT22;2768;53.540;10.224;2022-07-30T09:15:00;21.80;25.70
5492;DHT22;2768;53.540;10.224;2022-07-30T09:20:53;21.80;23.50
5492;DHT22;2768;53.540;10.224;2022-07-30T09:26:56;21.80;20.90
5492;DHT22;2768;53.540;10.224;2022-07-30T09:33:32;21.90;25.50
5492;DHT22;2768;53.540;10.224;2022-07-30T09:39:45;22.10;27.80
5492;DHT22;2768;53.540;10.224;2022-07-30T09:46:17;22.00;25.50
5492;DHT22;2768;53.540;10.224;2022-07-30T09:52:26;22.00;26.40
5492;DHT22;2768;53.540;10.224;2022-07-30T09:58:22;22.00;19.30
5492;DHT22;2768;53.540;10.224;2022-07-30T10:04:23;22.20;15.50
5492;DHT22;2768;53.540;10.224;2022-07-30T10:10:29;22.40;18.70
5492;DHT22;2768;53.540;10.224;2022-07-30T10:16:38;22.40;6.10
5492;DHT22;2768;53.540;10.224;2022-07-30T10:22:33;22.80;15.90
5492;DHT22;2768;53.540;10.224;2022-07-30T10:28:47;22.90;2.50
5492;DHT22;2768;53.540;10.224;2022-07-30T10:34:41;22.60;1.00
5492;DHT22;2768;53.540;10.224;2022-07-30T10:40:47;22.60;1.00
5492;DHT22;2768;53.540;10.224;2022-07-30T10:46:53;22.60;1.00
5492;DHT22;2768;53.540;10.224;2022-07-30T10:52:53;22.20;1.00
5492;DHT22;2768;53.540;10.224;2022-07-30T10:58:58;21.90;18.30
5492;DHT22;2768;53.540;10.224;2022-07-30T11:05:33;21.70;62.90
5492;DHT22;2768;53.540;10.224;2022-07-30T11:11:44;21.50;99.90
5492;DHT22;2768;53.540;10.224;2022-07-30T11:18:11;21.10;99.90
5492;DHT22;2768;53.540;10.224;2022-07-30T11:30:42;20.80;99.90
5492;DHT22;2768;53.540;10.224;2022-07-30T11:37:01;20.60;99.90
5492;DHT22;2768;53.540;10.224;2022-07-30T11:43:25;20.30;99.90
5492;DHT22;2768;53.540;10.224;2022-07-30T11:49:34;20.30;99.90
5492;DHT22;2768;53.540;10.224;2022-07-30T11:55:30;20.40;99.90
5492;DHT22;2768;53.540;10.224;2022-07-30T12:01:26;20.50;99.90
5492;DHT22;2768;53.540;10.224;2022-07-30T12:07:21;20.70;99.90
5492;DHT22;2768;53.540;10.224;2022-07-30T12:13:15;20.90;99.90
5492;DHT22;2768;53.540;10.224;2022-07-30T12:19:46;21.20;99.90
5492;DHT22;2768;53.540;10.224;2022-07-30T12:25:41;21.50;99.90
5492;DHT22;2768;53.540;10.224;2022-07-30T12:31:41;21.80;99.90
5492;DHT22;2768;53.540;10.224;2022-07-30T12:37:38;22.10;99.90
5492;DHT22;2768;53.540;10.224;2022-07-30T12:43:42;22.40;99.90
5492;DHT22;2768;53.540;10.224;2022-07-30T12:49:36;22.80;99.90
5492;DHT22;2768;53.540;10.224;2022-07-30T12:55:42;23.20;99.90
5492;DHT22;2768;53.540;10.224;2022-07-30T13:01:50;23.50;99.90
5492;DHT22;2768;53.540;10.224;2022-07-30T13:07:54;24.00;99.90
5492;DHT22;2768;53.540;10.224;2022-07-30T13:13:49;23.70;99.90
5492;DHT22;2768;53.540;10.224;2022-07-30T13:19:45;24.30;99.90
5492;DHT22;2768;53.540;10.224;2022-07-30T13:25:39;24.50;99.90
5492;DHT22;2768;53.540;10.224;2022-07-30T13:31:34;24.90;94.60
5492;DHT22;2768;53.540;10.224;2022-07-30T13:37:34;25.50;62.70
5492;DHT22;2768;53.540;10.224;2022-07-30T13:43:29;26.10;61.10
5492;DHT22;2768;53.540;10.224;2022-07-30T13:49:26;26.00;21.80
5492;DHT22;2768;53.540;10.224;2022-07-30T13:55:21;26.90;18.50
5492;DHT22;2768;53.540;10.224;2022-07-30T14:01:14;27.10;1.00
5492;DHT22;2768;53.540;10.224;2022-07-30T14:07:10;27.00;1.00
5492;DHT22;2768;53.540;10.224;2022-07-30T14:13:05;27.70;1.00
5492;DHT22;2768;53.540;10.224;2022-07-30T14:19:12;28.70;1.00
5492;DHT22;2768;53.540;10.224;2022-07-30T14:25:17;29.00;1.00
5492;DHT22;2768;53.540;10.224;2022-07-30T14:31:11;29.60;1.00
5492;DHT22;2768;53.540;10.224;2022-07-30T14:37:18;29.50;1.00
5492;DHT22;2768;53.540;10.224;2022-07-30T14:43:13;29.80;1.00
5492;DHT22;2768;53.540;10.224;2022-07-30T14:49:09;29.00;1.00
5492;DHT22;2768;53.540;10.224;2022-07-30T14:55:08;28.10;1.00
5492;DHT22;2768;53.540;10.224;2022-07-30T15:01:03;27.80;1.00
5492;DHT22;2768;53.540;10.224;2022-07-30T15:07:07;27.40;1.00
5492;DHT22;2768;53.540;10.224;2022-07-30T15:13:00;27.60;1.00
5492;DHT22;2768;53.540;10.224;2022-07-30T15:18:56;27.20;1.00
5492;DHT22;2768;53.540;10.224;2022-07-30T15:24:52;27.40;1.00
5492;DHT22;2768;53.540;10.224;2022-07-30T15:30:48;27.10;1.00
5492;DHT22;2768;53.540;10.224;2022-07-30T15:36:42;26.70;1.00
5492;DHT22;2768;53.540;10.224;2022-07-30T15:42:36;26.90;1.00
5492;DHT22;2768;53.540;10.224;2022-07-30T15:48:32;27.00;1.00
5492;DHT22;2768;53.540;10.224;2022-07-30T15:54:29;26.80;1.00
5492;DHT22;2768;53.540;10.224;2022-07-30T16:00:22;26.60;1.00
5492;DHT22;2768;53.540;10.224;2022-07-30T16:06:20;26.50;1.00
5492;DHT22;2768;53.540;10.224;2022-07-30T16:12:19;26.40;1.00
5492;DHT22;2768;53.540;10.224;2022-07-30T16:18:12;26.20;1.00
5492;DHT22;2768;53.540;10.224;2022-07-30T16:24:05;26.10;1.00
5492;DHT22;2768;53.540;10.224;2022-07-30T16:30:11;26.00;1.00
5492;DHT22;2768;53.540;10.224;2022-07-30T16:36:05;25.90;1.00
5492;DHT22;2768;53.540;10.224;2022-07-30T16:41:59;25.70;1.00
5492;DHT22;2768;53.540;10.224;2022-07-30T16:47:54;25.60;1.00
5492;DHT22;2768;53.540;10.224;2022-07-30T16:53:47;25.50;1.00
5492;DHT22;2768;53.540;10.224;2022-07-30T16:59:54;25.50;1.00
5492;DHT22;2768;53.540;10.224;2022-07-30T17:05:51;25.50;1.00
5492;DHT22;2768;53.540;10.224;2022-07-30T17:11:45;25.40;1.00
5492;DHT22;2768;53.540;10.224;2022-07-30T17:17:54;25.40;1.00
5492;DHT22;2768;53.540;10.224;2022-07-30T17:24:03;25.20;1.00
5492;DHT22;2768;53.540;10.224;2022-07-30T17:30:03;25.10;1.00
5492;DHT22;2768;53.540;10.224;2022-07-30T17:35:57;25.00;1.00
5492;DHT22;2768;53.540;10.224;2022-07-30T17:41:59;25.00;1.00
5492;DHT22;2768;53.540;10.224;2022-07-30T17:47:57;24.60;1.00
5492;DHT22;2768;53.540;10.224;2022-07-30T17:53:53;24.50;1.00
5492;DHT22;2768;53.540;10.224;2022-07-30T17:59:47;24.40;1.00
5492;DHT22;2768;53.540;10.224;2022-07-30T18:05:41;24.30;1.00
5492;DHT22;2768;53.540;10.224;2022-07-30T18:11:34;24.20;1.00
5492;DHT22;2768;53.540;10.224;2022-07-30T18:17:29;23.80;1.00
5492;DHT22;2768;53.540;10.224;2022-07-30T18:23:28;23.90;1.00
5492;DHT22;2768;53.540;10.224;2022-07-30T18:29:27;23.90;1.00
5492;DHT22;2768;53.540;10.224;2022-07-30T18:35:24;23.60;1.00
5492;DHT22;2768;53.540;10.224;2022-07-30T18:41:17;23.60;1.00
5492;DHT22;2768;53.540;10.224;2022-07-30T18:47:13;23.70;1.00
5492;DHT22;2768;53.540;10.224;2022-07-30T18:53:11;23.80;1.00
5492;DHT22;2768;53.540;10.224;2022-07-30T18:59:06;23.70;1.00
5492;DHT22;2768;53.540;10.224;2022-07-30T19:05:08;23.70;1.00
5492;DHT22;2768;53.540;10.224;2022-07-30T19:11:05;23.70;1.00
5492;DHT22;2768;53.540;10.224;2022-07-30T19:17:02;23.60;1.00
5492;DHT22;2768;53.540;10.224;2022-07-30T19:23:06;23.40;1.00
5492;DHT22;2768;53.540;10.224;2022-07-30T19:29:03;23.40;1.00
5492;DHT22;2768;53.540;10.224;2022-07-30T19:34:58;23.30;1.00
5492;DHT22;2768;53.540;10.224;2022-07-30T19:40:52;23.20;1.00
5492;DHT22;2768;53.540;10.224;2022-07-30T19:46:47;23.00;1.00
5492;DHT22;2768;53.540;10.224;2022-07-30T19:52:42;23.10;1.00
5492;DHT22;2768;53.540;10.224;2022-07-30T19:58:45;23.00;1.00
5492;DHT22;2768;53.540;10.224;2022-07-30T20:04:42;22.90;1.00
5492;DHT22;2768;53.540;10.224;2022-07-30T20:10:40;23.00;1.00
5492;DHT22;2768;53.540;10.224;2022-07-30T20:16:51;23.00;1.00
5492;DHT22;2768;53.540;10.224;2022-07-30T20:22:46;22.90;1.00
5492;DHT22;2768;53.540;10.224;2022-07-30T20:28:39;22.90;1.00
5492;DHT22;2768;53.540;10.224;2022-07-30T20:34:33;22.70;1.00
5492;DHT22;2768;53.540;10.224;2022-07-30T20:40:28;22.60;1.00
5492;DHT22;2768;53.540;10.224;2022-07-30T20:46:23;22.50;1.00
5492;DHT22;2768;53.540;10.224;2022-07-30T20:52:16;22.50;7.20
5492;DHT22;2768;53.540;10.224;2022-07-30T20:58:11;22.40;15.60
5492;DHT22;2768;53.540;10.224;2022-07-30T21:04:11;22.20;23.40
5492;DHT22;2768;53.540;10.224;2022-07-30T21:10:16;22.20;35.60
5492;DHT22;2768;53.540;10.224;2022-07-30T21:16:15;22.10;44.60
5492;DHT22;2768;53.540;10.224;2022-07-30T21:22:23;22.10;46.60
5492;DHT22;2768;53.540;10.224;2022-07-30T21:28:17;22.10;48.50
5492;DHT22;2768;53.540;10.224;2022-07-30T21:34:23;22.00;53.80
5492;DHT22;2768;53.540;10.224;2022-07-30T21:40:19;22.00;55.60
5492;DHT22;2768;53.540;10.224;2022-07-30T21:46:15;21.90;57.00
5492;DHT22;2768;53.540;10.224;2022-07-30T21:52:30;21.80;57.70
5492;DHT22;2768;53.540;10.224;2022-07-30T21:58:24;21.90;61.90
5492;DHT22;2768;53.540;10.224;2022-07-30T22:04:18;21.60;71.10
5492;DHT22;2768;53.540;10.224;2022-07-30T22:10:20;21.60;87.20
5492;DHT22;2768;53.540;10.224;2022-07-30T22:16:15;21.70;93.20
5492;DHT22;2768;53.540;10.224;2022-07-30T22:22:10;21.70;99.90
5492;DHT22;2768;53.540;10.224;2022-07-30T22:28:20;21.50;99.90
5492;DHT22;2768;53.540;10.224;2022-07-30T22:34:15;21.60;99.90
5492;DHT22;2768;53.540;10.224;2022-07-30T22:40:10;21.50;99.90
5492;DHT22;2768;53.540;10.224;2022-07-30T22:46:09;21.60;99.90
5492;DHT22;2768;53.540;10.224;2022-07-30T22:52:22;21.50;99.90
5492;DHT22;2768;53.540;10.224;2022-07-30T22:58:19;21.40;99.90
5492;DHT22;2768;53.540;10.224;2022-07-30T23:04:27;21.40;99.90
5492;DHT22;2768;53.540;10.224;2022-07-30T23:10:24;21.40;99.90
5492;DHT22;2768;53.540;10.224;2022-07-30T23:16:23;21.30;99.90
5492;DHT22;2768;53.540;10.224;2022-07-30T23:22:20;21.40;99.90
5492;DHT22;2768;53.540;10.224;2022-07-30T23:28:14;21.30;99.90
5492;DHT22;2768;53.540;10.224;2022-07-30T23:34:08;21.20;99.90
5492;DHT22;2768;53.540;10.224;2022-07-30T23:40:06;21.10;99.90
5492;DHT22;2768;53.540;10.224;2022-07-30T23:46:21;21.00;99.90
5492;DHT22;2768;53.540;10.224;2022-07-30T23:52:15;20.90;99.90
5492;DHT22;2768;53.540;10.224;2022-07-30T23:58:10;21.00;99.90
